Details From YARG - Argyle
To YBRM - Broome Intl
Flight Number -
Tags Generated
Created
Modified
Stats Distance 366 nm / 677 km
Max Altitude 0 ft / 0 m
Waypoints 3
Social Downloads 1
Likes 0
Share VATSIM

Download

Looking for another format? Having issues loading an existing format? Contact us
Advertisement - Login to hide

Notes

Generated

Route

YARG BRM YBRM

ID Type Via Altitude Latitude Longitude Leg Dist Tot Dist Heading (true) Name
O YARG APT - 0 ft / 0 m -16.64475˚ 128.44660˚ - 0 nm - Argyle
BRM NDB - 0 ft / 0 m -17.94639˚ 122.23528˚ 364 nm 364 nm 257° / 259° BROOME NDB-DME
O YBRM APT - 0 ft / 0 m -17.94581˚ 122.21626˚ 1 nm 365 nm 272° / 272° -

Altitude Profile

Advertisement - Login to hide

Weather


0- 5 10 15 20 25 30 35+ Temperature / ° C

Clouds and Precipitation
Forecast for 2017-12-12 06:00 UTC. Updated an hour ago

Ground ~20,000 ft ~40,000 ft Winds

YARG

Details ICAO YARG (GYL)
Name Argyle
Region Australia
Timezone Australia/Perth (UTC+8.0)
Stats Elevation 522 ft / 159 m (AMSL)
Location -16.635039° 128.450603°
Runways 1
Magnetic Variation 2.668° E

METAR

YARG 120600Z AUTO 35006KT 9999 // NCD 42/04 Q1006

Decode

TAF

Not found

Departure Runways

ID Width Length Bearing (true) Bearing (mag) Surface Threshold Offset Overrun Length
2 98 ft / 30 m 8,164 ft / 2,488 m 21.27° 18.60° Asphalt 285 ft / 87 m 0 ft / 0 m
20 98 ft / 30 m 8,164 ft / 2,488 m 201.27° 198.60° Asphalt 305 ft / 93 m 0 ft / 0 m

YBRM

Details ICAO YBRM
Name Broome Intl
Region Australia
Timezone Australia/Perth (UTC+8.0)
Stats Elevation 56 ft / 17 m (AMSL)
Location -17.948745° 122.227225°
Runways 1
Magnetic Variation 1.802° E

METAR

YBRM 120600Z 25016KT 9999 FEW028CB 33/25 Q1008

Decode

TAF

TAF YBRM 120441Z 1206/1306 24014KT CAVOK

Decode

Destination Runways

ID Width Length Bearing (true) Bearing (mag) Surface Threshold Offset Overrun Length
10 148 ft / 45 m 8,325 ft / 2,537 m 105.60° 103.80° Asphalt 292 ft / 89 m 52 ft / 16 m
28 148 ft / 45 m 8,325 ft / 2,537 m 285.60° 283.80° Asphalt 666 ft / 203 m 0 ft / 0 m